Time;durP1;ratioP1;P1;durP2;ratioP2;P2;SDS_P1;SDS_P2;PMS_P1;PMS_P2;Temp;Humidity;BMP_temperature;BMP_pressure;BME280_temperature;BME280_humidity;BME280_pressure;Samples;Min_cycle;Max_cycle;Signal;HPM_P1;HPM_P2
2022/04/13 00:01:37;;;;;;;7.90;4.18;;;13.00;99.90;;;;;;5133757;28;20464;-68
2022/04/13 00:04:03;;;;;;;5.65;3.30;;;13.00;99.90;;;;;;5133899;28;20035;-68
2022/04/13 00:06:28;;;;;;;7.82;3.72;;;13.00;99.90;;;;;;5133964;28;20381;-68
2022/04/13 00:08:55;;;;;;;6.15;3.63;;;13.00;99.90;;;;;;5134086;28;20461;-67
2022/04/13 00:11:22;;;;;;;5.15;2.97;;;13.00;99.90;;;;;;5133780;28;20022;-68
2022/04/13 00:13:47;;;;;;;4.25;3.15;;;12.90;99.90;;;;;;5133679;28;20027;-68
2022/04/13 00:16:13;;;;;;;6.78;3.00;;;12.90;99.90;;;;;;5133750;28;20027;-68
2022/04/13 00:18:39;;;;;;;4.60;3.17;;;12.90;99.90;;;;;;5115472;28;20457;-67
2022/04/13 00:21:04;;;;;;;5.88;3.67;;;12.90;99.90;;;;;;5133604;28;20050;-68
2022/04/13 00:23:31;;;;;;;4.47;3.35;;;12.90;99.90;;;;;;5133720;28;20149;-68
2022/04/13 00:25:58;;;;;;;6.22;3.53;;;12.90;99.90;;;;;;5133502;28;20122;-68
2022/04/13 00:28:23;;;;;;;6.95;3.78;;;12.90;99.90;;;;;;5133901;28;20473;-67
2022/04/13 00:30:49;;;;;;;7.43;3.90;;;12.90;99.90;;;;;;5133605;28;20024;-67
2022/04/13 00:33:14;;;;;;;11.85;3.97;;;12.90;99.90;;;;;;5135512;27;20520;-67
2022/04/13 00:35:40;;;;;;;6.20;3.47;;;12.80;99.90;;;;;;5137380;27;20016;-67
2022/04/13 00:38:06;;;;;;;4.80;3.33;;;12.80;99.90;;;;;;5137491;27;20110;-67
2022/04/13 00:40:31;;;;;;;5.53;3.58;;;12.80;99.90;;;;;;5137490;27;20030;-67
2022/04/13 00:42:57;;;;;;;4.90;3.58;;;12.70;99.90;;;;;;5137240;27;20019;-67
2022/04/13 00:45:23;;;;;;;5.53;3.95;;;12.70;99.90;;;;;;5137276;27;20050;-67
2022/04/13 00:47:49;;;;;;;6.43;3.38;;;12.60;99.90;;;;;;5137077;27;20051;-67
2022/04/13 00:50:14;;;;;;;7.25;3.53;;;12.60;99.90;;;;;;5137273;27;20019;-67
2022/04/13 00:52:44;;;;;;;6.85;4.32;;;12.50;99.90;;;;;;5118875;27;20031;-67
2022/04/13 00:55:13;;;;;;;6.72;4.00;;;12.50;99.90;;;;;;5136953;27;20495;-67
2022/04/13 00:57:40;;;;;;;8.80;4.20;;;12.40;99.90;;;;;;5137103;27;20031;-67
2022/04/13 01:00:09;;;;;;;7.03;4.30;;;12.40;99.90;;;;;;5118588;27;20056;-67
2022/04/13 01:02:37;;;;;;;4.72;3.78;;;12.30;99.90;;;;;;5136820;27;20031;-67
2022/04/13 01:05:05;;;;;;;6.55;4.40;;;12.20;99.90;;;;;;5136907;27;20485;-67
2022/04/13 01:07:32;;;;;;;5.45;3.40;;;12.20;99.90;;;;;;5136972;27;20431;-67
2022/04/13 01:10:00;;;;;;;5.78;3.45;;;12.10;99.90;;;;;;5136717;27;20076;-67
2022/04/13 01:12:26;;;;;;;6.20;3.65;;;12.00;99.90;;;;;;5136654;27;20484;-67
2022/04/13 01:14:52;;;;;;;5.57;3.80;;;12.00;99.90;;;;;;5136796;27;20020;-67
2022/04/13 01:17:18;;;;;;;5.18;3.90;;;11.90;99.90;;;;;;5136519;27;20389;-67
2022/04/13 01:19:46;;;;;;;5.32;3.67;;;11.90;99.90;;;;;;5136446;27;20367;-68
2022/04/13 01:22:19;;;;;;;6.38;3.92;;;11.80;99.90;;;;;;5136510;27;20488;-67
2022/04/13 01:24:45;;;;;;;6.57;4.00;;;11.80;99.90;;;;;;5118091;27;20424;-67
2022/04/13 01:27:11;;;;;;;6.72;3.90;;;11.80;99.90;;;;;;5136402;27;20015;-67
2022/04/13 01:29:37;;;;;;;8.98;4.70;;;11.70;99.90;;;;;;5136328;27;20020;-67
2022/04/13 01:32:03;;;;;;;8.85;4.68;;;11.70;99.90;;;;;;5136555;27;20015;-67
2022/04/13 01:34:29;;;;;;;6.13;3.70;;;11.70;99.90;;;;;;5136318;27;20066;-67
2022/04/13 01:36:54;;;;;;;5.57;3.80;;;11.70;99.90;;;;;;5136420;27;20496;-67
2022/04/13 01:39:20;;;;;;;6.75;4.05;;;11.70;99.90;;;;;;5117584;27;20031;-67
2022/04/13 01:41:46;;;;;;;5.07;3.97;;;11.80;99.90;;;;;;5136292;27;20155;-67
2022/04/13 01:44:15;;;;;;;4.47;3.53;;;11.70;99.90;;;;;;5135995;27;20067;-67
2022/04/13 01:46:40;;;;;;;4.50;3.53;;;11.80;99.90;;;;;;5136137;27;20037;-67
2022/04/13 01:49:06;;;;;;;6.32;4.43;;;11.80;99.90;;;;;;5136148;27;20525;-67
2022/04/13 01:51:31;;;;;;;7.30;4.28;;;11.80;99.90;;;;;;5136090;27;20102;-67
2022/04/13 01:53:57;;;;;;;8.50;3.92;;;11.80;99.90;;;;;;5136070;27;20027;-67
2022/04/13 01:56:22;;;;;;;7.95;4.07;;;11.90;99.90;;;;;;5117355;27;20023;-67
2022/04/13 01:58:48;;;;;;;6.15;3.80;;;11.90;99.90;;;;;;5135799;27;20027;-68
2022/04/13 02:01:14;;;;;;;6.35;4.32;;;11.90;99.90;;;;;;5135632;27;20027;-67
2022/04/13 02:03:40;;;;;;;6.57;4.32;;;11.90;99.90;;;;;;5135798;27;20038;-67
2022/04/13 02:06:06;;;;;;;8.05;4.53;;;11.90;99.90;;;;;;5135704;27;20031;-67
2022/04/13 02:08:31;;;;;;;5.25;3.67;;;11.90;99.90;;;;;;5135594;27;20026;-67
2022/04/13 02:10:57;;;;;;;8.52;4.10;;;11.90;99.90;;;;;;5135462;27;20027;-67
2022/04/13 02:13:23;;;;;;;5.47;4.13;;;11.80;99.90;;;;;;5135331;27;20098;-67
2022/04/13 02:15:48;;;;;;;5.78;3.95;;;11.90;99.90;;;;;;5135363;27;20019;-67
2022/04/13 02:18:15;;;;;;;6.10;3.92;;;11.90;99.90;;;;;;5116872;27;20019;-67
2022/04/13 02:20:40;;;;;;;8.52;4.65;;;11.90;99.90;;;;;;5135476;27;20397;-67
2022/04/13 02:23:06;;;;;;;6.38;4.47;;;11.90;99.90;;;;;;5135183;27;20027;-67
2022/04/13 02:25:34;;;;;;;9.20;4.60;;;11.90;99.90;;;;;;5134932;27;20107;-67
2022/04/13 02:28:01;;;;;;;8.45;4.57;;;11.90;99.90;;;;;;5135366;27;20031;-67
2022/04/13 02:30:26;;;;;;;12.40;4.65;;;11.90;99.90;;;;;;5134994;27;20042;-67
2022/04/13 02:32:52;;;;;;;5.47;4.50;;;11.90;99.90;;;;;;5134983;27;20023;-67
2022/04/13 02:35:17;;;;;;;8.40;4.30;;;11.80;99.90;;;;;;5116722;27;20046;-67
2022/04/13 02:37:43;;;;;;;7.68;4.55;;;11.80;99.90;;;;;;5135172;27;20076;-67
2022/04/13 02:40:10;;;;;;;5.50;4.05;;;11.80;99.90;;;;;;5135108;27;20048;-67
2022/04/13 02:42:36;;;;;;;6.50;4.40;;;11.90;99.90;;;;;;5135090;27;20031;-67
2022/04/13 02:45:03;;;;;;;7.63;3.97;;;11.90;99.90;;;;;;5134718;27;20393;-67
2022/04/13 02:47:33;;;;;;;9.15;4.82;;;11.90;99.90;;;;;;5134853;27;20027;-67
2022/04/13 02:50:00;;;;;;;6.93;4.15;;;11.90;99.90;;;;;;5134798;27;20019;-67
2022/04/13 02:52:28;;;;;;;7.60;4.88;;;11.90;99.90;;;;;;5134757;27;20019;-67
2022/04/13 02:54:54;;;;;;;7.80;4.82;;;11.90;99.90;;;;;;5134577;27;20030;-67
2022/04/13 02:57:19;;;;;;;7.30;4.30;;;11.80;99.90;;;;;;5116289;27;20380;-67
2022/04/13 02:59:46;;;;;;;8.23;4.25;;;11.90;99.90;;;;;;5134822;27;20015;-67
2022/04/13 03:02:14;;;;;;;8.00;4.65;;;11.90;99.90;;;;;;5134785;27;20051;-67
2022/04/13 03:04:42;;;;;;;7.68;4.43;;;11.90;99.90;;;;;;5134656;27;20033;-67
2022/04/13 03:07:09;;;;;;;7.13;4.55;;;11.80;99.90;;;;;;5134515;27;20380;-67
2022/04/13 03:09:34;;;;;;;7.78;5.10;;;11.80;99.90;;;;;;5134427;27;20058;-67
2022/04/13 03:12:00;;;;;;;7.40;4.50;;;11.80;99.90;;;;;;5134629;27;20046;-67
2022/04/13 03:14:26;;;;;;;6.10;5.07;;;11.80;99.90;;;;;;5134410;27;20026;-67
2022/04/13 03:16:52;;;;;;;6.40;4.53;;;11.80;99.90;;;;;;5134578;27;20058;-67
2022/04/13 03:19:17;;;;;;;6.78;4.63;;;11.80;99.90;;;;;;5134235;27;20067;-67
2022/04/13 03:21:42;;;;;;;7.15;4.88;;;11.70;99.90;;;;;;5134270;27;20415;-67
2022/04/13 03:24:08;;;;;;;7.45;4.45;;;11.60;99.90;;;;;;5133927;27;20034;-67
2022/04/13 03:26:34;;;;;;;6.35;4.57;;;11.50;99.90;;;;;;5134110;28;20056;-67
2022/04/13 03:28:59;;;;;;;8.85;4.63;;;11.50;99.90;;;;;;5115918;28;20469;-67
2022/04/13 03:31:25;;;;;;;9.98;4.53;;;11.40;99.90;;;;;;5115789;28;20035;-67
2022/04/13 03:33:50;;;;;;;5.75;4.28;;;11.30;99.90;;;;;;5115736;28;20496;-67
2022/04/13 03:36:17;;;;;;;6.15;4.57;;;11.90;99.90;;;;;;5115795;28;20034;-68
2022/04/13 03:38:42;;;;;;;8.13;5.25;;;11.10;99.90;;;;;;5134334;28;20500;-67
2022/04/13 03:41:08;;;;;;;8.07;4.85;;;11.00;99.90;;;;;;5115805;28;20031;-67
2022/04/13 03:43:33;;;;;;;9.95;5.53;;;11.00;99.90;;;;;;5134118;28;20027;-67
2022/04/13 03:45:59;;;;;;;8.65;5.40;;;10.80;99.90;;;;;;5133980;28;20055;-67
2022/04/13 03:48:24;;;;;;;7.50;4.85;;;10.80;99.90;;;;;;5133993;28;20015;-67
2022/04/13 03:50:50;;;;;;;7.22;4.95;;;10.70;99.90;;;;;;5133985;28;20026;-67
2022/04/13 03:53:15;;;;;;;8.52;5.47;;;10.70;99.90;;;;;;5133924;28;20024;-67
2022/04/13 03:55:41;;;;;;;5.47;4.97;;;10.70;99.90;;;;;;5133993;28;20507;-67
2022/04/13 03:58:06;;;;;;;6.47;5.38;;;10.60;99.90;;;;;;5133913;28;20023;-67
2022/04/13 04:00:32;;;;;;;9.10;5.53;;;10.50;99.90;;;;;;5115905;28;20020;-67
2022/04/13 04:02:57;;;;;;;7.43;5.00;;;10.40;99.90;;;;;;5133948;28;20023;-67
2022/04/13 04:05:23;;;;;;;6.85;5.35;;;10.40;99.90;;;;;;5134026;28;20027;-67
2022/04/13 04:07:49;;;;;;;8.52;4.97;;;10.30;99.90;;;;;;5117180;27;20019;-67
2022/04/13 04:10:15;;;;;;;7.72;5.35;;;10.30;99.90;;;;;;5138022;27;20058;-67
2022/04/13 04:12:41;;;;;;;8.52;5.30;;;10.20;99.90;;;;;;5137982;27;20068;-67
2022/04/13 04:15:09;;;;;;;8.07;5.45;;;10.20;99.90;;;;;;5137888;27;20023;-67
2022/04/13 04:17:35;;;;;;;10.20;5.45;;;10.20;99.90;;;;;;5137614;27;20031;-67
2022/04/13 04:20:02;;;;;;;9.10;5.15;;;10.20;99.90;;;;;;5119559;27;20034;-67
2022/04/13 04:22:29;;;;;;;12.27;5.97;;;10.10;99.90;;;;;;5137714;27;20030;-67
2022/04/13 04:24:54;;;;;;;12.52;5.72;;;10.20;99.90;;;;;;5137461;27;20051;-67
2022/04/13 04:27:20;;;;;;;10.10;5.70;;;10.20;99.90;;;;;;5137735;27;20026;-67
2022/04/13 04:29:46;;;;;;;14.70;7.30;;;10.20;99.90;;;;;;5119011;27;20391;-67
2022/04/13 04:32:11;;;;;;;10.65;6.78;;;10.20;99.90;;;;;;5137389;27;20102;-67
2022/04/13 04:34:37;;;;;;;11.93;6.53;;;10.10;99.90;;;;;;5137334;27;20534;-67
2022/04/13 04:37:03;;;;;;;10.13;6.25;;;10.20;99.90;;;;;;5137272;27;20019;-68
2022/04/13 04:39:28;;;;;;;11.45;6.65;;;10.20;99.90;;;;;;5137490;27;20038;-67
2022/04/13 04:41:54;;;;;;;16.60;7.05;;;10.20;99.90;;;;;;5137460;27;20020;-67
2022/04/13 04:44:20;;;;;;;11.85;7.05;;;10.20;99.90;;;;;;5118742;27;20094;-67
2022/04/13 04:46:45;;;;;;;13.43;7.30;;;10.30;99.90;;;;;;5137260;27;20023;-68
2022/04/13 04:49:11;;;;;;;11.60;7.35;;;10.30;99.90;;;;;;5118986;27;20098;-68
2022/04/13 04:51:36;;;;;;;11.48;6.45;;;10.30;99.90;;;;;;5137052;27;20149;-68
2022/04/13 04:54:03;;;;;;;10.32;6.50;;;10.40;99.90;;;;;;5118642;27;20023;-67
2022/04/13 04:56:29;;;;;;;10.63;7.00;;;10.40;99.90;;;;;;5137159;27;20030;-67
2022/04/13 04:58:56;;;;;;;10.13;6.25;;;10.50;99.90;;;;;;5136909;27;20517;-67
2022/04/13 05:01:21;;;;;;;11.43;6.22;;;10.50;99.90;;;;;;5136802;27;20034;-67
2022/04/13 05:03:50;;;;;;;11.85;6.55;;;10.60;99.90;;;;;;5136765;27;20080;-67
2022/04/13 05:06:19;;;;;;;16.15;7.38;;;10.60;99.90;;;;;;5118248;27;20023;-67
2022/04/13 05:08:44;;;;;;;13.25;6.55;;;10.70;99.90;;;;;;5136939;27;20019;-67
2022/04/13 05:11:10;;;;;;;17.08;6.95;;;10.80;99.90;;;;;;5118300;27;20027;-68
2022/04/13 05:13:35;;;;;;;10.15;6.35;;;10.80;99.90;;;;;;5136595;27;20034;-68
2022/04/13 05:16:01;;;;;;;11.98;6.60;;;;;;;;;;5118200;27;20027;-68
2022/04/13 05:18:27;;;;;;;12.43;6.50;;;11.00;99.90;;;;;;5136164;27;20035;-67
2022/04/13 05:20:53;;;;;;;14.32;7.10;;;11.10;99.90;;;;;;5136428;27;20492;-68
2022/04/13 05:23:18;;;;;;;11.07;6.80;;;11.10;99.90;;;;;;5136405;27;20091;-67
2022/04/13 05:25:46;;;;;;;12.40;6.97;;;11.20;99.90;;;;;;5136050;27;20078;-67
2022/04/13 05:28:12;;;;;;;13.90;7.55;;;11.20;99.90;;;;;;5136329;27;20067;-67
2022/04/13 05:30:37;;;;;;;25.27;7.68;;;11.20;99.90;;;;;;5136191;27;20023;-68
2022/04/13 05:33:03;;;;;;;20.63;8.35;;;11.30;99.90;;;;;;5136279;27;20031;-68
2022/04/13 05:35:28;;;;;;;22.65;9.07;;;11.30;99.90;;;;;;5136402;27;20027;-68
2022/04/13 05:37:55;;;;;;;11.73;7.43;;;11.30;99.90;;;;;;5136409;27;20023;-67
2022/04/13 05:40:22;;;;;;;15.15;8.07;;;11.40;99.90;;;;;;5136105;27;20065;-68
2022/04/13 05:42:48;;;;;;;20.08;8.82;;;11.40;99.90;;;;;;5136236;27;20080;-67
2022/04/13 05:45:14;;;;;;;15.55;8.18;;;11.50;99.90;;;;;;5136083;27;20023;-67
2022/04/13 05:47:42;;;;;;;19.73;9.13;;;11.50;99.90;;;;;;5135879;27;20019;-67
2022/04/13 05:50:08;;;;;;;18.02;8.80;;;11.60;99.90;;;;;;5135907;27;20023;-67
2022/04/13 05:52:34;;;;;;;18.52;8.10;;;11.80;99.90;;;;;;5136103;27;20023;-67
2022/04/13 05:55:00;;;;;;;16.58;8.02;;;11.90;99.90;;;;;;5135827;27;20031;-67
2022/04/13 05:57:25;;;;;;;18.52;8.38;;;12.10;99.90;;;;;;5135684;27;20023;-68
2022/04/13 05:59:51;;;;;;;18.15;8.55;;;12.20;99.90;;;;;;5135944;27;20380;-67
2022/04/13 06:02:17;;;;;;;20.60;8.07;;;12.30;99.90;;;;;;5135624;27;20094;-67
2022/04/13 06:04:43;;;;;;;18.55;8.55;;;12.40;99.90;;;;;;5117261;27;20019;-67
2022/04/13 06:07:08;;;;;;;15.77;8.27;;;12.60;99.90;;;;;;5135311;27;20384;-68
2022/04/13 06:09:34;;;;;;;13.27;7.47;;;12.90;99.90;;;;;;5135246;27;20098;-67
2022/04/13 06:11:59;;;;;;;14.35;7.45;;;13.40;99.90;;;;;;5135332;27;20077;-68
2022/04/13 06:14:25;;;;;;;15.32;6.47;;;14.00;99.90;;;;;;5117089;27;20023;-67
2022/04/13 06:16:50;;;;;;;16.05;6.90;;;14.50;99.90;;;;;;5135334;27;20024;-68
2022/04/13 06:19:16;;;;;;;9.55;6.13;;;15.10;99.90;;;;;;5117053;27;20038;-68
2022/04/13 06:21:41;;;;;;;16.67;7.07;;;16.00;99.90;;;;;;5135177;27;20023;-68
2022/04/13 06:24:07;;;;;;;10.10;6.60;;;16.30;99.90;;;;;;5135135;27;20036;-69
2022/04/13 06:26:33;;;;;;;15.57;7.03;;;16.70;99.90;;;;;;5135134;27;20027;-68
2022/04/13 06:28:58;;;;;;;20.10;7.40;;;17.30;99.90;;;;;;5135123;27;20064;-69
2022/04/13 06:31:24;;;;;;;13.18;7.05;;;17.80;99.90;;;;;;5151718;27;20377;-69
2022/04/13 06:33:50;;;;;;;15.43;7.13;;;18.20;99.90;;;;;;5155670;27;20019;-69
2022/04/13 06:36:15;;;;;;;13.40;7.13;;;18.50;99.90;;;;;;5155784;27;20026;-69
2022/04/13 06:38:41;;;;;;;11.85;7.50;;;18.70;99.90;;;;;;5155650;27;20023;-69
2022/04/13 06:41:08;;;;;;;17.02;7.63;;;18.70;99.90;;;;;;5155800;27;20494;-68
2022/04/13 06:43:33;;;;;;;13.02;7.75;;;19.00;99.90;;;;;;5155726;27;20015;-69
2022/04/13 06:45:59;;;;;;;14.30;7.35;;;19.50;99.90;;;;;;5155665;27;20049;-69
2022/04/13 06:48:24;;;;;;;15.73;7.75;;;19.90;99.90;;;;;;5155403;27;20059;-69
2022/04/13 06:50:50;;;;;;;15.63;7.63;;;20.30;99.90;;;;;;5155674;27;20429;-69
2022/04/13 06:53:17;;;;;;;19.42;8.40;;;20.70;99.90;;;;;;5155422;27;20513;-68
2022/04/13 06:55:44;;;;;;;15.10;8.25;;;19.80;99.90;;;;;;5152542;27;20027;-69
2022/04/13 06:58:10;;;;;;;18.75;7.60;;;19.50;99.90;;;;;;5133825;27;20019;-69
2022/04/13 07:00:36;;;;;;;17.92;7.88;;;19.70;99.90;;;;;;5134066;27;20553;-69
2022/04/13 07:03:02;;;;;;;15.68;8.48;;;19.40;99.90;;;;;;5098208;27;20023;-68
2022/04/13 07:05:28;;;;;;;19.92;8.88;;;19.10;99.90;;;;;;5114903;27;20110;-69
2022/04/13 07:07:55;;;;;;;21.40;8.35;;;19.30;99.90;;;;;;5132255;27;20067;-69
2022/04/13 07:10:21;;;;;;;19.33;8.70;;;19.60;99.90;;;;;;5115773;27;20480;-69
2022/04/13 07:12:47;;;;;;;23.88;9.15;;;20.00;99.90;;;;;;5133876;27;20032;-67
2022/04/13 07:15:17;;;;;;;18.65;7.47;;;20.70;99.90;;;;;;5115546;27;20076;-67
2022/04/13 07:17:43;;;;;;;20.80;7.85;;;20.70;99.20;;;;;;5134132;27;20027;-67
2022/04/13 07:20:09;;;;;;;23.90;8.38;;;20.70;98.90;;;;;;5133520;27;20019;-67
2022/04/13 07:22:50;;;;;;;15.27;8.07;;;20.90;98.90;;;;;;5134142;27;20031;-70
2022/04/13 07:25:17;;;;;;;17.88;7.50;;;21.20;98.10;;;;;;5133617;27;20139;-67
2022/04/13 07:27:43;;;;;;;18.92;8.02;;;21.10;97.40;;;;;;5134379;27;20087;-67
2022/04/13 07:30:09;;;;;;;18.05;8.02;;;21.20;98.30;;;;;;5133621;28;20024;-68
2022/04/13 07:32:35;;;;;;;20.83;7.55;;;21.30;97.20;;;;;;5134325;28;20091;-68
2022/04/13 07:35:02;;;;;;;17.17;7.93;;;21.40;97.10;;;;;;5133605;28;20023;-68
2022/04/13 07:37:29;;;;;;;16.58;7.32;;;21.50;96.30;;;;;;5133960;28;20388;-68
2022/04/13 07:39:54;;;;;;;17.35;8.05;;;21.30;96.90;;;;;;5097099;28;20016;-68
2022/04/13 07:42:21;;;;;;;21.25;7.78;;;20.50;97.70;;;;;;5135991;27;20465;-68
2022/04/13 07:44:47;;;;;;;17.75;7.78;;;19.70;99.90;;;;;;5138125;27;20031;-68
2022/04/13 07:47:14;;;;;;;13.68;7.63;;;19.50;99.90;;;;;;5137520;27;20027;-68
2022/04/13 07:49:41;;;;;;;17.88;8.43;;;19.30;99.90;;;;;;5137743;27;20062;-67
2022/04/13 07:52:07;;;;;;;18.05;7.68;;;19.10;99.90;;;;;;5138319;27;20484;-68
2022/04/13 07:54:33;;;;;;;21.80;8.38;;;19.50;99.90;;;;;;5118538;27;20370;-68
2022/04/13 07:56:59;;;;;;;18.38;8.32;;;20.10;99.90;;;;;;5119267;27;20023;-68
2022/04/13 07:59:24;;;;;;;17.92;8.50;;;20.10;99.90;;;;;;5137879;27;20050;-68
2022/04/13 08:01:50;;;;;;;20.02;8.02;;;19.70;99.90;;;;;;5119065;27;20476;-68
2022/04/13 08:04:15;;;;;;;17.15;8.40;;;20.40;99.90;;;;;;5137902;27;20031;-68
2022/04/13 08:06:41;;;;;;;14.65;8.55;;;20.40;99.90;;;;;;5137793;27;20452;-68
2022/04/13 08:09:06;;;;;;;18.38;8.85;;;20.40;99.90;;;;;;5119715;27;20027;-68
2022/04/13 08:11:32;;;;;;;20.27;8.40;;;20.70;99.90;;;;;;5119337;27;20043;-68
2022/04/13 08:13:57;;;;;;;14.68;8.65;;;21.00;99.90;;;;;;5119416;27;20357;-68
2022/04/13 08:16:23;;;;;;;17.65;8.55;;;21.40;99.90;;;;;;5119323;27;20068;-68
2022/04/13 08:18:48;;;;;;;18.10;9.20;;;22.00;97.90;;;;;;5119229;27;20026;-69
2022/04/13 08:21:14;;;;;;;17.15;8.75;;;21.70;98.00;;;;;;5137505;27;20076;-69
2022/04/13 08:23:39;;;;;;;15.15;8.35;;;21.10;98.80;;;;;;5137374;27;20035;-69
2022/04/13 08:26:05;;;;;;;17.73;8.27;;;21.40;99.10;;;;;;5118854;27;20466;-68
2022/04/13 08:28:30;;;;;;;14.10;8.65;;;21.70;98.30;;;;;;5119164;27;20053;-69
2022/04/13 08:30:56;;;;;;;15.68;8.93;;;22.30;97.00;;;;;;5137334;27;20473;-69
2022/04/13 08:33:21;;;;;;;16.77;9.10;;;22.20;97.00;;;;;;5137360;27;20477;-69
2022/04/13 08:35:47;;;;;;;18.75;9.43;;;21.50;98.10;;;;;;5137250;27;20027;-69
2022/04/13 08:38:12;;;;;;;25.10;9.52;;;22.00;98.70;;;;;;5137227;27;20528;-69
2022/04/13 08:40:47;;;;;;;17.73;8.90;;;22.80;96.80;;;;;;5137175;27;20023;-68
2022/04/13 08:43:21;;;;;;;17.52;9.70;;;22.40;96.70;;;;;;5137043;27;20027;-69
2022/04/13 08:45:55;;;;;;;21.80;10.18;;;22.00;96.40;;;;;;5137023;27;20485;-69
2022/04/13 08:48:23;;;;;;;17.85;9.68;;;21.80;97.50;;;;;;5137305;27;20497;-69
2022/04/13 08:50:53;;;;;;;22.73;10.43;;;22.20;96.50;;;;;;5137053;27;20530;-69
2022/04/13 08:53:24;;;;;;;17.52;10.50;;;21.80;96.90;;;;;;5117749;27;20023;-69
2022/04/13 08:55:54;;;;;;;19.77;9.55;;;21.80;97.00;;;;;;5118436;27;20070;-69
2022/04/13 08:58:36;;;;;;;20.17;10.30;;;22.70;95.40;;;;;;5136806;27;20542;-69
2022/04/13 09:01:09;;;;;;;17.70;10.32;;;22.60;95.20;;;;;;5136886;27;20366;-69
2022/04/13 09:03:43;;;;;;;16.55;10.68;;;22.50;94.50;;;;;;5136864;27;20385;-69
2022/04/13 09:06:10;;;;;;;20.95;10.82;;;21.70;95.60;;;;;;5136859;27;20430;-69
2022/04/13 09:08:58;;;;;;;19.83;10.40;;;21.90;95.50;;;;;;5118284;27;20027;-69
2022/04/13 09:11:24;;;;;;;19.67;10.93;;;21.70;96.10;;;;;;5136567;27;20019;-69
2022/04/13 09:13:50;;;;;;;17.95;10.45;;;22.20;96.10;;;;;;5136470;27;20106;-69
2022/04/13 09:16:16;;;;;;;19.17;9.82;;;22.50;95.40;;;;;;5118449;27;20028;-69
2022/04/13 09:18:43;;;;;;;20.75;10.70;;;23.10;95.50;;;;;;5136498;27;20071;-69
2022/04/13 09:21:13;;;;;;;18.48;10.48;;;23.50;93.80;;;;;;5136436;27;20031;-69
2022/04/13 09:23:39;;;;;;;18.65;10.68;;;24.00;93.40;;;;;;5136478;27;20070;-69
2022/04/13 09:26:07;;;;;;;14.25;10.30;;;24.00;93.50;;;;;;5136028;27;20051;-69
2022/04/13 09:28:33;;;;;;;18.08;10.38;;;24.30;92.50;;;;;;5136310;27;20019;-70
2022/04/13 09:30:58;;;;;;;19.25;11.10;;;25.00;90.30;;;;;;5136095;27;20015;-69
2022/04/13 09:33:25;;;;;;;19.70;10.90;;;24.40;90.90;;;;;;5136052;27;20050;-69
2022/04/13 09:35:53;;;;;;;22.70;10.65;;;24.70;90.80;;;;;;5136308;27;20027;-70
2022/04/13 09:38:19;;;;;;;18.75;11.85;;;25.00;90.70;;;;;;5136352;27;20050;-69
2022/04/13 09:40:45;;;;;;;17.10;10.75;;;24.30;90.40;;;;;;5135968;27;20015;-69
2022/04/13 09:43:14;;;;;;;24.35;12.48;;;24.20;91.30;;;;;;5117684;27;20050;-69
2022/04/13 09:45:43;;;;;;;21.98;12.50;;;24.00;91.20;;;;;;5135885;27;20502;-69
2022/04/13 09:48:11;;;;;;;23.48;12.27;;;23.70;91.80;;;;;;5135913;27;20098;-69
2022/04/13 09:50:39;;;;;;;19.60;11.85;;;24.40;92.10;;;;;;5117775;27;20063;-69
2022/04/13 09:53:06;;;;;;;19.27;12.05;;;24.60;90.80;;;;;;5118023;27;20072;-69
2022/04/13 09:55:36;;;;;;;20.95;11.85;;;24.50;90.90;;;;;;5135712;27;20029;-69
2022/04/13 09:58:04;;;;;;;22.00;11.82;;;24.60;92.10;;;;;;5135707;27;20415;-70
2022/04/13 10:00:30;;;;;;;22.42;12.13;;;24.60;91.50;;;;;;5135608;27;20027;-69
2022/04/13 10:03:10;;;;;;;20.58;12.43;;;24.50;91.50;;;;;;5135855;27;20126;-69
2022/04/13 10:05:36;;;;;;;19.05;12.52;;;24.00;90.90;;;;;;5134655;27;20475;-70
2022/04/13 10:08:06;;;;;;;22.75;12.43;;;24.00;91.60;;;;;;5135591;27;20037;-69
2022/04/13 10:10:32;;;;;;;20.73;11.82;;;24.40;91.70;;;;;;5117647;27;20095;-69
2022/04/13 10:12:58;;;;;;;22.42;12.18;;;24.40;91.60;;;;;;5135414;27;20012;-69
2022/04/13 10:15:23;;;;;;;21.52;13.07;;;24.40;90.80;;;;;;5135375;27;20030;-69
2022/04/13 10:17:49;;;;;;;20.45;12.63;;;24.60;91.20;;;;;;5117348;27;20026;-69
2022/04/13 10:20:15;;;;;;;24.52;13.07;;;24.60;90.60;;;;;;5135490;27;20015;-69
2022/04/13 10:22:58;;;;;;;19.00;12.25;;;24.80;91.90;;;;;;5135379;27;20064;-70
2022/04/13 10:25:27;;;;;;;18.83;11.95;;;25.00;90.80;;;;;;5135045;27;20092;-69
2022/04/13 10:27:54;;;;;;;21.05;11.50;;;25.00;90.80;;;;;;5116640;27;20038;-69
2022/04/13 10:30:37;;;;;;;20.05;11.93;;;24.80;90.70;;;;;;5135292;27;20023;-69
2022/04/13 10:33:05;;;;;;;23.88;12.27;;;24.90;90.20;;;;;;5116567;27;20034;-69
2022/04/13 10:35:38;;;;;;;18.35;11.13;;;24.90;90.40;;;;;;5135173;27;20417;-69
2022/04/13 10:38:07;;;;;;;18.63;11.98;;;25.40;90.00;;;;;;5134963;27;20060;-69
2022/04/13 10:40:35;;;;;;;21.40;12.27;;;25.10;90.20;;;;;;5134863;27;20035;-68
2022/04/13 10:43:03;;;;;;;18.80;11.55;;;24.80;90.40;;;;;;5134794;27;20031;-69
2022/04/13 10:45:30;;;;;;;19.92;10.73;;;25.30;90.40;;;;;;5134654;27;20024;-68
2022/04/13 10:48:02;;;;;;;18.15;9.70;;;25.40;90.60;;;;;;5134547;27;20022;-68
2022/04/13 10:50:49;;;;;;;25.53;10.93;;;25.40;90.10;;;;;;5134695;27;20098;-68
2022/04/13 10:53:20;;;;;;;22.52;12.77;;;25.10;90.10;;;;;;5134528;27;20055;-68
2022/04/13 10:55:55;;;;;;;24.50;12.32;;;24.70;91.20;;;;;;5134754;27;20023;-68
2022/04/13 11:01:41;;;;;;;22.33;12.05;;;24.50;92.00;;;;;;5111113;27;20437;-69
2022/04/13 11:04:07;;;;;;;24.92;12.73;;;24.20;92.20;;;;;;5110863;28;20024;-69
2022/04/13 11:06:35;;;;;;;22.13;12.48;;;24.30;93.00;;;;;;5111053;28;20553;-69
2022/04/13 11:09:15;;;;;;;22.02;12.73;;;24.30;93.10;;;;;;5109722;28;20503;-69
2022/04/13 11:11:41;;;;;;;23.45;13.15;;;24.10;93.10;;;;;;5110809;28;20115;-69
2022/04/13 11:14:24;;;;;;;20.77;11.82;;;24.20;92.80;;;;;;5109512;28;20118;-69
2022/04/13 11:19:49;;;;;;;20.83;13.00;;;24.40;92.70;;;;;;5090736;27;20299;-69
2022/04/13 11:22:16;;;;;;;21.48;12.00;;;24.30;93.80;;;;;;5090870;28;20093;-69
2022/04/13 11:24:54;;;;;;;23.65;12.68;;;23.90;93.30;;;;;;5090574;28;20054;-68
2022/04/13 11:27:20;;;;;;;21.73;11.38;;;23.60;94.80;;;;;;5090420;28;20398;-68
2022/04/13 11:29:58;;;;;;;20.42;11.98;;;23.70;95.10;;;;;;5090479;28;20028;-68
2022/04/13 11:32:26;;;;;;;17.90;11.27;;;23.40;94.40;;;;;;5090392;28;20016;-68
2022/04/13 11:37:40;;;;;;;22.65;12.75;;;23.50;95.70;;;;;;5111227;27;20132;-69
2022/04/13 11:40:10;;;;;;;23.67;12.73;;;22.50;96.90;;;;;;5111295;28;20038;-69
2022/04/13 11:42:43;;;;;;;21.90;11.70;;;22.70;95.40;;;;;;5111174;28;20020;-69
2022/04/13 11:45:14;;;;;;;21.45;12.90;;;23.10;97.10;;;;;;5110762;28;20031;-69
2022/04/13 11:47:58;;;;;;;19.55;10.23;;;23.50;96.50;;;;;;5110844;28;20546;-69
2022/04/13 11:50:27;;;;;;;15.43;8.75;;;24.10;95.10;;;;;;5109588;28;20385;-69
2022/04/13 11:52:59;;;;;;;17.77;8.55;;;24.40;94.00;;;;;;5110680;28;20055;-69
2022/04/13 11:58:21;;;;;;;19.52;9.98;;;24.70;92.90;;;;;;5090524;28;20352;-69
2022/04/13 12:00:56;;;;;;;16.38;11.20;;;24.90;92.10;;;;;;5090640;28;20482;-69
2022/04/13 12:03:24;;;;;;;22.42;10.48;;;24.80;92.40;;;;;;5090804;28;20024;-69
2022/04/13 12:05:53;;;;;;;21.33;9.23;;;24.90;92.70;;;;;;5090567;28;20546;-69
2022/04/13 12:08:29;;;;;;;14.10;7.32;;;24.70;92.80;;;;;;5090785;28;20028;-69
2022/04/13 12:13:56;;;;;;;15.48;7.82;;;24.90;91.70;;;;;;5110982;27;20408;-69
2022/04/13 12:16:25;;;;;;;19.13;7.70;;;24.90;91.50;;;;;;5110792;28;20103;-68
2022/04/13 12:18:52;;;;;;;13.38;7.43;;;24.90;92.30;;;;;;5111132;28;20020;-69
2022/04/13 12:21:21;;;;;;;13.65;8.35;;;24.90;91.20;;;;;;5110858;28;20026;-69
2022/04/13 12:23:49;;;;;;;18.45;7.60;;;24.60;91.60;;;;;;5109581;28;20020;-69
2022/04/13 12:26:15;;;;;;;14.38;7.10;;;24.70;91.80;;;;;;5111123;28;20024;-68
2022/04/13 12:28:41;;;;;;;13.07;6.47;;;24.80;91.20;;;;;;5110793;28;20059;-69
2022/04/13 12:31:11;;;;;;;16.70;7.13;;;24.50;90.20;;;;;;5110718;28;20024;-69
2022/04/13 12:33:38;;;;;;;19.95;6.20;;;24.50;90.40;;;;;;5092412;28;20182;-69
2022/04/13 12:36:08;;;;;;;19.08;6.55;;;24.70;90.10;;;;;;5110646;28;20024;-69
2022/04/13 12:38:38;;;;;;;14.70;6.53;;;24.20;91.20;;;;;;5110620;28;20020;-68
2022/04/13 12:43:59;;;;;;;14.45;6.05;;;24.60;90.50;;;;;;5070511;28;20407;-69
2022/04/13 12:46:27;;;;;;;13.82;6.10;;;25.20;90.10;;;;;;5070455;28;20558;-69
2022/04/13 12:48:55;;;;;;;14.88;6.28;;;25.00;90.00;;;;;;5070191;28;20033;-69
2022/04/13 12:51:22;;;;;;;12.98;6.25;;;24.70;88.70;;;;;;5070312;28;20021;-67
2022/04/13 12:53:58;;;;;;;15.23;6.93;;;25.10;89.70;;;;;;5070339;28;20037;-67
2022/04/13 12:56:28;;;;;;;16.85;5.93;;;24.60;89.20;;;;;;5070318;28;20029;-67